Fred, Texas
Current Conditions -  °F | °C
As of 4:55 AM on Wednesday 22 Oct 2014 (Local Time) from KJAS Reporting Station
Haze Haze  
Wind Chill: 55°   Ceiling: Unl
Heat Index: 55°   Visibility: 4mi
Dew Point: 54°   Wind: 0mph
Humidity: 97%   Direction: NA
Pressure: 30.08"   Gusts: NA
Location:  30.58°N, 94.18°W
Report Text: KJAS 220955Z AUTO 00000KT 4SM BR CLR 13/12 A3008 RMK AO2 T01280124
Loading
Personal Weather Stations






























Interactive Weather Map
Tropical Storm Tracking
New forecast layout! Learn more

10-Day Weather Forecast

Advertisements
Track Severe Weather on mobile